createdAt,value
2022-12-03T00:00:40.659Z,-0.25
2022-12-03T00:01:42.411Z,-0.25
2022-12-03T00:02:44.312Z,-0.25
2022-12-03T00:03:45.997Z,-0.25
2022-12-03T00:04:47.585Z,-0.26
2022-12-03T00:05:49.509Z,-0.26
2022-12-03T00:06:51.076Z,-0.26
2022-12-03T00:07:52.849Z,-0.26
2022-12-03T00:08:54.521Z,-0.26
2022-12-03T00:09:56.253Z,-0.26
2022-12-03T00:10:57.984Z,-0.26
2022-12-03T00:11:59.731Z,-0.26
2022-12-03T00:13:01.446Z,-0.27
2022-12-03T00:14:03.200Z,-0.27
2022-12-03T00:15:04.915Z,-0.27
2022-12-03T00:16:06.751Z,-0.27
2022-12-03T00:17:08.389Z,-0.28
2022-12-03T00:18:10.123Z,-0.27
2022-12-03T00:19:11.857Z,-0.27
2022-12-03T00:20:13.572Z,-0.27
2022-12-03T00:21:15.341Z,-0.28
2022-12-03T00:22:17.063Z,-0.27
2022-12-03T00:23:18.788Z,-0.27
2022-12-03T00:24:20.525Z,-0.27
2022-12-03T00:25:22.249Z,-0.28
2022-12-03T00:26:24.001Z,-0.29
2022-12-03T00:27:25.734Z,-0.28
2022-12-03T00:28:27.448Z,-0.28
2022-12-03T00:29:29.183Z,-0.29
2022-12-03T00:30:30.912Z,-0.28
2022-12-03T00:31:32.717Z,-0.28
2022-12-03T00:32:34.390Z,-0.28
2022-12-03T00:33:36.114Z,-0.28
2022-12-03T00:34:37.862Z,-0.27
2022-12-03T00:35:39.615Z,-0.27
2022-12-03T00:36:41.321Z,-0.28
2022-12-03T00:37:43.050Z,-0.28
2022-12-03T00:38:44.784Z,-0.28
2022-12-03T00:39:46.521Z,-0.28
2022-12-03T00:40:48.254Z,-0.28
2022-12-03T00:41:50.006Z,-0.28
2022-12-03T00:42:51.724Z,-0.28
2022-12-03T00:43:53.458Z,-0.27
2022-12-03T00:44:55.504Z,-0.27
2022-12-03T00:45:56.993Z,-0.27
2022-12-03T00:46:58.747Z,-0.28
2022-12-03T00:48:00.387Z,-0.27
2022-12-03T00:49:02.128Z,-0.28
2022-12-03T00:50:03.867Z,-0.29
2022-12-03T00:51:05.575Z,-0.27
2022-12-03T00:52:07.323Z,-0.28
2022-12-03T00:53:09.058Z,-0.27
2022-12-03T00:54:10.798Z,-0.27
2022-12-03T00:55:12.546Z,-0.27
2022-12-03T00:56:14.275Z,-0.27
2022-12-03T00:57:15.985Z,-0.27
2022-12-03T00:58:17.745Z,-0.27
2022-12-03T00:59:19.469Z,-0.28
2022-12-03T01:00:21.194Z,-0.27
2022-12-03T01:01:23.037Z,-0.27
2022-12-03T01:02:24.674Z,-0.27
2022-12-03T01:03:26.389Z,-0.27
2022-12-03T01:04:28.171Z,-0.27
2022-12-03T01:05:29.863Z,-0.27
2022-12-03T01:06:31.599Z,-0.27
2022-12-03T01:07:33.351Z,-0.26
2022-12-03T01:08:35.046Z,-0.26
2022-12-03T01:09:36.783Z,-0.25
2022-12-03T01:10:38.515Z,-0.26
2022-12-03T01:11:40.259Z,-0.26
2022-12-03T01:12:41.985Z,-0.25
2022-12-03T01:13:43.726Z,-0.25
2022-12-03T01:14:45.477Z,-0.26
2022-12-03T01:15:47.214Z,-0.26
2022-12-03T01:16:48.931Z,-0.25
2022-12-03T01:17:50.664Z,-0.25
2022-12-03T01:18:52.396Z,-0.25
2022-12-03T01:19:54.125Z,-0.25
2022-12-03T01:20:55.859Z,-0.26
2022-12-03T01:21:57.600Z,-0.25
2022-12-03T01:22:59.311Z,-0.26
2022-12-03T01:24:01.063Z,-0.25
2022-12-03T01:25:02.784Z,-0.25
2022-12-03T01:26:04.517Z,-0.26
2022-12-03T01:27:06.265Z,-0.24
2022-12-03T01:28:07.994Z,-0.26
2022-12-03T01:29:09.732Z,-0.26
2022-12-03T01:30:11.460Z,-0.25
2022-12-03T01:31:13.283Z,-0.25
2022-12-03T01:32:14.920Z,-0.24
2022-12-03T01:33:16.658Z,-0.25
2022-12-03T01:34:18.382Z,-0.25
2022-12-03T01:35:20.134Z,-0.25
2022-12-03T01:36:21.881Z,-0.24
2022-12-03T01:37:23.585Z,-0.25
2022-12-03T01:38:25.308Z,-0.25
2022-12-03T01:39:27.039Z,-0.23
2022-12-03T01:40:28.785Z,-0.23
2022-12-03T01:41:30.519Z,-0.24
2022-12-03T01:42:32.251Z,-0.23
2022-12-03T01:43:33.978Z,-0.24
2022-12-03T01:44:35.715Z,-0.23
2022-12-03T01:45:37.458Z,-0.22
2022-12-03T01:46:39.309Z,-0.23
2022-12-03T01:47:40.931Z,-0.23
2022-12-03T01:48:42.653Z,-0.23
2022-12-03T01:49:44.382Z,-0.22
2022-12-03T01:50:46.119Z,-0.23
2022-12-03T01:51:47.859Z,-0.23
2022-12-03T01:52:49.570Z,-0.22
2022-12-03T01:53:51.310Z,-0.22
2022-12-03T01:54:53.435Z,-0.22
2022-12-03T01:55:54.773Z,-0.21
2022-12-03T01:56:56.537Z,-0.22
2022-12-03T01:57:58.252Z,-0.21
2022-12-03T01:59:00.017Z,-0.2
2022-12-03T02:00:01.738Z,-0.2
2022-12-03T02:01:03.451Z,-0.2
2022-12-03T02:02:05.271Z,-0.2
2022-12-03T02:03:06.930Z,-0.21
2022-12-03T02:04:08.672Z,-0.2
2022-12-03T02:05:10.387Z,-0.2
2022-12-03T02:06:12.139Z,-0.19
2022-12-03T02:07:13.848Z,-0.2
2022-12-03T02:08:15.618Z,-0.19
2022-12-03T02:09:17.321Z,-0.19
2022-12-03T02:10:19.047Z,-0.19
2022-12-03T02:11:20.828Z,-0.18
2022-12-03T02:12:22.533Z,-0.18
2022-12-03T02:13:24.248Z,-0.17
2022-12-03T02:14:25.989Z,-0.18
2022-12-03T02:15:27.744Z,-0.18
2022-12-03T02:16:29.517Z,-0.18
2022-12-03T02:17:31.197Z,-0.18
2022-12-03T02:18:32.924Z,-0.18
2022-12-03T02:19:34.671Z,-0.17
2022-12-03T02:20:36.396Z,-0.18
2022-12-03T02:21:38.175Z,-0.16
2022-12-03T02:22:39.851Z,-0.17
2022-12-03T02:23:41.578Z,-0.16
2022-12-03T02:24:43.328Z,-0.16
2022-12-03T02:25:45.057Z,-0.15
2022-12-03T02:26:46.810Z,-0.16
2022-12-03T02:27:48.531Z,-0.15
2022-12-03T02:28:50.252Z,-0.15
2022-12-03T02:29:51.988Z,-0.15
2022-12-03T02:30:53.718Z,-0.15
2022-12-03T02:31:55.569Z,-0.16
2022-12-03T02:32:57.188Z,-0.14
2022-12-03T02:33:58.927Z,-0.15
2022-12-03T02:35:00.660Z,-0.14
2022-12-03T02:36:04.085Z,-0.14
2022-12-03T02:37:04.146Z,-0.14
2022-12-03T02:38:05.850Z,-0.14
2022-12-03T02:39:07.588Z,-0.14
2022-12-03T02:40:09.303Z,-0.14
2022-12-03T02:41:11.042Z,-0.13
2022-12-03T02:42:12.786Z,-0.13
2022-12-03T02:43:14.518Z,-0.14
2022-12-03T02:44:16.256Z,-0.13
2022-12-03T02:45:17.976Z,-0.14
2022-12-03T02:46:19.748Z,-0.13
2022-12-03T02:47:21.451Z,-0.12
2022-12-03T02:48:23.189Z,-0.12
2022-12-03T02:49:24.912Z,-0.13
2022-12-03T02:50:26.655Z,-0.12
2022-12-03T02:51:28.380Z,-0.13
2022-12-03T02:52:30.113Z,-0.12
2022-12-03T02:53:31.852Z,-0.12
2022-12-03T02:54:33.580Z,-0.12
2022-12-03T02:55:37.373Z,-0.12
2022-12-03T02:56:37.039Z,-0.11
2022-12-03T02:57:38.784Z,-0.11
2022-12-03T02:58:40.498Z,-0.11
2022-12-03T02:59:42.234Z,-0.11
2022-12-03T03:00:44.082Z,-0.11
2022-12-03T03:01:45.761Z,-0.11
2022-12-03T03:02:47.430Z,-0.11
2022-12-03T03:03:49.167Z,-0.11
2022-12-03T03:04:51.153Z,-0.11
2022-12-03T03:05:52.633Z,-0.11
2022-12-03T03:06:54.384Z,-0.11
2022-12-03T03:07:56.174Z,-0.12
2022-12-03T03:08:57.859Z,-0.11
2022-12-03T03:09:59.573Z,-0.1
2022-12-03T03:11:01.299Z,-0.11
2022-12-03T03:12:03.062Z,-0.09
2022-12-03T03:13:04.772Z,-0.1
2022-12-03T03:14:06.497Z,-0.09
2022-12-03T03:15:08.250Z,-0.09
2022-12-03T03:16:10.018Z,-0.09
2022-12-03T03:17:11.716Z,-0.1
2022-12-03T03:18:13.446Z,-0.1
2022-12-03T03:19:15.181Z,-0.08
2022-12-03T03:20:16.908Z,-0.09
2022-12-03T03:21:18.639Z,-0.09
2022-12-03T03:22:20.374Z,-0.09
2022-12-03T03:23:22.111Z,-0.08
2022-12-03T03:24:23.829Z,-0.09
2022-12-03T03:25:25.575Z,-0.09
2022-12-03T03:26:27.323Z,-0.08
2022-12-03T03:27:29.034Z,-0.08
2022-12-03T03:28:30.759Z,-0.08
2022-12-03T03:29:32.482Z,-0.07
2022-12-03T03:30:34.233Z,-0.07
2022-12-03T03:31:36.004Z,-0.08
2022-12-03T03:32:37.681Z,-0.06
2022-12-03T03:33:39.428Z,-0.07
2022-12-03T03:34:41.166Z,-0.07
2022-12-03T03:35:42.920Z,-0.07
2022-12-03T03:36:44.773Z,-0.06
2022-12-03T03:37:46.360Z,-0.07
2022-12-03T03:38:48.086Z,-0.07
2022-12-03T03:39:49.830Z,-0.08
2022-12-03T03:40:51.582Z,-0.07
2022-12-03T03:41:53.302Z,-0.07
2022-12-03T03:42:55.030Z,-0.06
2022-12-03T03:43:56.775Z,-0.07
2022-12-03T03:44:58.499Z,-0.07
2022-12-03T03:46:00.432Z,-0.08
2022-12-03T03:47:01.962Z,-0.07
2022-12-03T03:48:03.701Z,-0.06
2022-12-03T03:49:05.424Z,-0.08
2022-12-03T03:50:07.155Z,-0.08
2022-12-03T03:51:09.059Z,-0.07
2022-12-03T03:52:10.653Z,-0.08
2022-12-03T03:53:12.369Z,-0.08
2022-12-03T03:54:14.085Z,-0.08
2022-12-03T03:55:15.822Z,-0.08
2022-12-03T03:56:17.568Z,-0.08
2022-12-03T03:57:19.288Z,-0.07
2022-12-03T03:58:21.025Z,-0.07
2022-12-03T03:59:22.761Z,-0.08
2022-12-03T04:00:24.501Z,-0.07
2022-12-03T04:01:26.383Z,-0.07
2022-12-03T04:02:27.969Z,-0.07
2022-12-03T04:03:29.693Z,-0.07
2022-12-03T04:04:31.495Z,-0.07
2022-12-03T04:05:33.168Z,-0.07
2022-12-03T04:06:34.891Z,-0.07
2022-12-03T04:07:36.685Z,-0.07
2022-12-03T04:08:38.403Z,-0.07
2022-12-03T04:09:40.090Z,-0.08
2022-12-03T04:10:41.824Z,-0.08
2022-12-03T04:11:43.579Z,-0.08
2022-12-03T04:12:45.279Z,-0.08
2022-12-03T04:13:47.021Z,-0.07
2022-12-03T04:14:48.801Z,-0.08
2022-12-03T04:15:50.491Z,-0.09
2022-12-03T04:16:52.318Z,-0.08
2022-12-03T04:17:53.957Z,-0.09
2022-12-03T04:18:55.685Z,-0.09
2022-12-03T04:19:57.429Z,-0.1
2022-12-03T04:20:59.155Z,-0.09
2022-12-03T04:22:00.886Z,-0.1
2022-12-03T04:23:02.618Z,-0.09
2022-12-03T04:24:04.355Z,-0.09
2022-12-03T04:25:06.088Z,-0.09
2022-12-03T04:26:07.826Z,-0.09
2022-12-03T04:27:09.571Z,-0.08
2022-12-03T04:28:11.278Z,-0.08
2022-12-03T04:29:13.027Z,-0.09
2022-12-03T04:30:14.745Z,-0.08
2022-12-03T04:31:16.545Z,-0.07
2022-12-03T04:32:18.237Z,-0.08
2022-12-03T04:33:19.956Z,-0.08
2022-12-03T04:34:21.679Z,-0.08
2022-12-03T04:35:23.453Z,-0.08
2022-12-03T04:36:25.149Z,-0.08
2022-12-03T04:37:26.887Z,-0.08
2022-12-03T04:38:28.604Z,-0.09
2022-12-03T04:39:30.347Z,-0.09
2022-12-03T04:40:32.088Z,-0.09
2022-12-03T04:41:33.844Z,-0.08
2022-12-03T04:42:35.547Z,-0.09
2022-12-03T04:43:37.288Z,-0.09
2022-12-03T04:44:39.015Z,-0.09
2022-12-03T04:45:40.798Z,-0.09
2022-12-03T04:46:42.499Z,-0.08
2022-12-03T04:47:44.215Z,-0.09
2022-12-03T04:48:45.941Z,-0.09
2022-12-03T04:49:47.686Z,-0.09
2022-12-03T04:50:49.417Z,-0.08
2022-12-03T04:51:51.177Z,-0.08
2022-12-03T04:52:52.880Z,-0.08
2022-12-03T04:53:54.621Z,-0.09
2022-12-03T04:54:56.711Z,-0.09
2022-12-03T04:55:58.079Z,-0.08
2022-12-03T04:56:59.831Z,-0.08
2022-12-03T04:58:01.542Z,-0.1
2022-12-03T04:59:03.273Z,-0.09
2022-12-03T05:00:05.026Z,-0.08
2022-12-03T05:01:06.770Z,-0.09
2022-12-03T05:02:08.612Z,-0.1
2022-12-03T05:03:10.214Z,-0.1
2022-12-03T05:04:11.941Z,-0.11
2022-12-03T05:05:13.698Z,-0.1
2022-12-03T05:06:15.408Z,-0.1
2022-12-03T05:07:17.165Z,-0.1
2022-12-03T05:08:18.950Z,-0.09
2022-12-03T05:09:20.623Z,-0.1
2022-12-03T05:10:22.349Z,-0.09
2022-12-03T05:11:24.074Z,-0.09
2022-12-03T05:12:25.819Z,-0.1
2022-12-03T05:13:27.550Z,-0.1
2022-12-03T05:14:29.269Z,-0.09
2022-12-03T05:15:31.005Z,-0.09
2022-12-03T05:16:32.845Z,-0.1
2022-12-03T05:17:34.479Z,-0.09
2022-12-03T05:18:36.211Z,-0.1
2022-12-03T05:19:37.947Z,-0.1
2022-12-03T05:20:39.677Z,-0.09
2022-12-03T05:21:41.423Z,-0.08
2022-12-03T05:22:43.141Z,-0.08
2022-12-03T05:23:44.870Z,-0.09
2022-12-03T05:24:46.612Z,-0.08
2022-12-03T05:25:48.340Z,-0.08
2022-12-03T05:26:50.082Z,-0.08
2022-12-03T05:27:51.818Z,-0.07
2022-12-03T05:28:53.544Z,-0.08
2022-12-03T05:29:55.274Z,-0.08
2022-12-03T05:30:57.075Z,-0.08
2022-12-03T05:31:58.740Z,-0.08
2022-12-03T05:33:00.475Z,-0.07
2022-12-03T05:34:02.201Z,-0.08
2022-12-03T05:35:03.932Z,-0.07
2022-12-03T05:36:05.678Z,-0.06
2022-12-03T05:37:07.428Z,-0.07
2022-12-03T05:38:09.148Z,-0.07
2022-12-03T05:39:10.886Z,-0.07
2022-12-03T05:40:12.601Z,-0.07
2022-12-03T05:41:14.342Z,-0.07
2022-12-03T05:42:16.087Z,-0.08
2022-12-03T05:43:17.801Z,-0.09
2022-12-03T05:44:20.803Z,-0.09
2022-12-03T05:45:21.271Z,-0.1
2022-12-03T05:46:23.104Z,-0.09
2022-12-03T05:47:24.748Z,-0.1
2022-12-03T05:48:26.471Z,-0.09
2022-12-03T05:49:28.215Z,-0.1
2022-12-03T05:50:29.932Z,-0.1
2022-12-03T05:51:31.664Z,-0.09
2022-12-03T05:52:33.409Z,-0.1
2022-12-03T05:53:35.136Z,-0.1
2022-12-03T05:54:36.856Z,-0.1
2022-12-03T05:55:38.607Z,-0.1
2022-12-03T05:56:40.353Z,-0.1
2022-12-03T05:57:42.078Z,-0.11
2022-12-03T05:58:43.809Z,-0.11
2022-12-03T05:59:45.533Z,-0.11
2022-12-03T06:00:47.262Z,-0.12
2022-12-03T06:01:49.001Z,-0.11
2022-12-03T06:02:50.838Z,-0.11
2022-12-03T06:03:52.722Z,-0.11
2022-12-03T06:04:54.538Z,-0.11
2022-12-03T06:05:55.932Z,-0.11
2022-12-03T06:06:57.678Z,-0.11
2022-12-03T06:07:59.594Z,-0.11
2022-12-03T06:09:01.136Z,-0.11
2022-12-03T06:10:02.868Z,-0.1
2022-12-03T06:11:04.601Z,-0.1
2022-12-03T06:12:06.353Z,-0.1
2022-12-03T06:13:08.072Z,-0.1
2022-12-03T06:14:09.795Z,-0.1
2022-12-03T06:15:11.535Z,-0.1
2022-12-03T06:16:13.332Z,-0.1
2022-12-03T06:17:15.009Z,-0.1
2022-12-03T06:18:16.758Z,-0.1
2022-12-03T06:19:18.476Z,-0.11
2022-12-03T06:20:20.203Z,-0.1
2022-12-03T06:21:21.926Z,-0.11
2022-12-03T06:22:23.691Z,-0.1
2022-12-03T06:23:25.383Z,-0.11
2022-12-03T06:24:27.159Z,-0.12
2022-12-03T06:25:28.854Z,-0.12
2022-12-03T06:26:30.609Z,-0.12
2022-12-03T06:27:32.327Z,-0.11
2022-12-03T06:28:34.057Z,-0.13
2022-12-03T06:29:35.803Z,-0.13
2022-12-03T06:30:37.526Z,-0.13
2022-12-03T06:31:39.382Z,-0.12
2022-12-03T06:32:41.006Z,-0.13
2022-12-03T06:33:42.747Z,-0.13
2022-12-03T06:34:44.473Z,-0.14
2022-12-03T06:35:46.204Z,-0.13
2022-12-03T06:36:47.933Z,-0.14
2022-12-03T06:37:49.680Z,-0.15
2022-12-03T06:38:51.239Z,-0.15
2022-12-03T06:39:52.984Z,-0.14
2022-12-03T06:40:54.726Z,-0.15
2022-12-03T06:41:56.451Z,-0.14
2022-12-03T06:42:58.167Z,-0.14
2022-12-03T06:43:59.922Z,-0.15
2022-12-03T06:45:01.634Z,-0.15
2022-12-03T06:46:03.444Z,-0.14
2022-12-03T06:47:05.132Z,-0.15
2022-12-03T06:48:06.861Z,-0.15
2022-12-03T06:49:08.603Z,-0.16
2022-12-03T06:50:10.321Z,-0.14
2022-12-03T06:51:12.044Z,-0.15
2022-12-03T06:52:13.806Z,-0.15
2022-12-03T06:53:15.511Z,-0.14
2022-12-03T06:54:17.243Z,-0.14
2022-12-03T06:55:18.984Z,-0.15
2022-12-03T06:56:22.431Z,-0.14
2022-12-03T06:57:22.472Z,-0.15
2022-12-03T06:58:24.211Z,-0.15
2022-12-03T06:59:25.908Z,-0.14
2022-12-03T07:00:27.676Z,-0.14
2022-12-03T07:01:29.522Z,-0.14
2022-12-03T07:02:31.183Z,-0.13
2022-12-03T07:03:32.845Z,-0.13
2022-12-03T07:04:34.581Z,-0.14
2022-12-03T07:05:36.324Z,-0.15
2022-12-03T07:06:38.066Z,-0.14
2022-12-03T07:07:39.833Z,-0.14
2022-12-03T07:08:41.520Z,-0.14
2022-12-03T07:09:43.274Z,-0.14
2022-12-03T07:10:44.998Z,-0.13
2022-12-03T07:11:46.742Z,-0.12
2022-12-03T07:12:48.460Z,-0.13
2022-12-03T07:13:50.183Z,-0.12
2022-12-03T07:14:52.528Z,-0.12
2022-12-03T07:15:53.797Z,-0.13
2022-12-03T07:16:55.462Z,-0.12
2022-12-03T07:17:57.152Z,-0.12
2022-12-03T07:18:59.126Z,-0.12
2022-12-03T07:20:00.628Z,-0.13
2022-12-03T07:21:02.314Z,-0.12
2022-12-03T07:22:04.126Z,-0.11
2022-12-03T07:23:05.820Z,-0.13
2022-12-03T07:24:07.552Z,-0.12
2022-12-03T07:25:09.302Z,-0.12
2022-12-03T07:26:10.992Z,-0.13
2022-12-03T07:27:12.735Z,-0.13
2022-12-03T07:28:14.488Z,-0.13
2022-12-03T07:29:16.199Z,-0.12
2022-12-03T07:30:17.939Z,-0.12
2022-12-03T07:31:19.733Z,-0.11
2022-12-03T07:32:21.386Z,-0.12
2022-12-03T07:33:23.168Z,-0.12
2022-12-03T07:34:24.853Z,-0.11
2022-12-03T07:35:26.863Z,-0.11
2022-12-03T07:36:28.392Z,-0.11
2022-12-03T07:37:30.075Z,-0.1
2022-12-03T07:38:31.795Z,-0.1
2022-12-03T07:39:33.538Z,-0.1
2022-12-03T07:40:35.276Z,-0.11
2022-12-03T07:41:37.046Z,-0.09
2022-12-03T07:44:56.214Z,-0.07
2022-12-03T07:45:57.676Z,-0.07
2022-12-03T07:46:59.577Z,-0.06
2022-12-03T07:48:01.159Z,-0.05
2022-12-03T07:49:02.871Z,-0.05
2022-12-03T07:50:04.620Z,-0.05
2022-12-03T07:51:06.343Z,-0.05
2022-12-03T07:52:08.096Z,-0.05
2022-12-03T07:53:09.814Z,-0.04
2022-12-03T07:54:11.556Z,-0.03
2022-12-03T07:55:13.278Z,-0.03
2022-12-03T07:56:15.074Z,-0.02
2022-12-03T07:57:16.757Z,-0.01
2022-12-03T07:58:18.497Z,-0.01
2022-12-03T07:59:20.235Z,0.01
2022-12-03T08:00:21.943Z,0.01
2022-12-03T08:01:23.795Z,0.01
2022-12-03T08:02:25.476Z,0.02
2022-12-03T08:03:27.145Z,0.02
2022-12-03T08:04:28.882Z,0.02
2022-12-03T08:05:30.615Z,0.02
2022-12-03T08:06:32.334Z,0.03
2022-12-03T08:07:34.165Z,0.04
2022-12-03T08:08:35.802Z,0.04
2022-12-03T08:09:37.525Z,0.05
2022-12-03T08:10:39.282Z,0.05
2022-12-03T08:11:40.977Z,0.06
2022-12-03T08:12:42.787Z,0.07
2022-12-03T08:13:44.456Z,0.07
2022-12-03T08:14:46.142Z,0.07
2022-12-03T08:15:47.891Z,0.08
2022-12-03T08:16:49.766Z,0.08
2022-12-03T08:17:51.347Z,0.08
2022-12-03T08:18:53.085Z,0.09
2022-12-03T08:19:54.804Z,0.1
2022-12-03T08:20:56.556Z,0.1
2022-12-03T08:22:01.237Z,0.11
2022-12-03T08:22:59.966Z,0.12
2022-12-03T08:24:01.703Z,0.13
2022-12-03T08:25:03.451Z,0.13
2022-12-03T08:26:05.151Z,0.14
2022-12-03T08:27:06.908Z,0.15
2022-12-03T08:28:08.607Z,0.15
2022-12-03T08:29:10.323Z,0.16
2022-12-03T08:30:12.054Z,0.17
2022-12-03T08:31:13.818Z,0.18
2022-12-03T08:32:15.591Z,0.18
2022-12-03T08:33:17.214Z,0.2
2022-12-03T08:34:18.940Z,0.2
2022-12-03T08:35:20.638Z,0.22
2022-12-03T08:36:22.398Z,0.22
2022-12-03T08:37:24.146Z,0.23
2022-12-03T08:38:25.827Z,0.24
2022-12-03T08:39:27.562Z,0.25
2022-12-03T08:40:29.294Z,0.26
2022-12-03T08:41:31.002Z,0.27
2022-12-03T08:42:32.758Z,0.27
2022-12-03T08:43:34.477Z,0.29
2022-12-03T08:44:36.207Z,0.3
2022-12-03T08:45:39.329Z,0.3
2022-12-03T08:46:40.789Z,0.31
2022-12-03T08:47:41.425Z,0.31
2022-12-03T08:48:58.601Z,0.32
2022-12-03T08:50:00.371Z,0.32
2022-12-03T08:51:02.084Z,0.33
2022-12-03T08:52:03.835Z,0.32
2022-12-03T08:53:05.558Z,0.33
2022-12-03T08:54:07.294Z,0.33
2022-12-03T08:55:09.024Z,0.34
2022-12-03T08:56:10.737Z,0.35
2022-12-03T08:57:12.512Z,0.33
2022-12-03T08:58:14.223Z,0.36
2022-12-03T08:59:15.960Z,0.36
2022-12-03T09:00:17.698Z,0.37
2022-12-03T09:01:19.502Z,0.37
2022-12-03T09:05:33.576Z,0.39
2022-12-03T09:06:35.316Z,0.39
2022-12-03T09:07:37.053Z,0.4
2022-12-03T09:08:38.757Z,0.41
2022-12-03T09:09:40.488Z,0.4
2022-12-03T09:10:42.218Z,0.4
2022-12-03T09:11:43.969Z,0.42
2022-12-03T09:12:45.674Z,0.41
2022-12-03T09:13:47.424Z,0.42
2022-12-03T09:14:49.152Z,0.43
2022-12-03T09:15:50.882Z,0.44
2022-12-03T09:16:52.713Z,0.43
2022-12-03T09:17:54.346Z,0.43
2022-12-03T09:18:56.078Z,0.44
2022-12-03T09:19:57.841Z,0.45
2022-12-03T09:20:59.525Z,0.46
2022-12-03T09:22:01.305Z,0.46
2022-12-03T09:23:02.998Z,0.48
2022-12-03T09:24:04.761Z,0.49
2022-12-03T09:25:06.472Z,0.49
2022-12-03T09:26:08.209Z,0.51
2022-12-03T09:27:09.942Z,0.51
2022-12-03T09:28:11.664Z,0.52
2022-12-03T09:29:13.456Z,0.54
2022-12-03T09:30:15.130Z,0.55
2022-12-03T09:31:16.969Z,0.57
2022-12-03T09:32:19.066Z,0.58
2022-12-03T09:33:20.343Z,0.6
2022-12-03T09:34:22.089Z,0.62
2022-12-03T09:35:23.840Z,0.64
2022-12-03T09:36:25.544Z,0.67
2022-12-03T09:37:27.281Z,0.67
2022-12-03T09:38:29.076Z,0.71
2022-12-03T09:39:30.726Z,0.72
2022-12-03T09:40:32.480Z,0.75
2022-12-03T09:41:34.214Z,0.77
2022-12-03T09:42:35.950Z,0.78
2022-12-03T09:44:03.355Z,0.81
2022-12-03T09:44:39.422Z,0.84
2022-12-03T09:45:41.217Z,0.86
2022-12-03T09:46:42.870Z,0.87
2022-12-03T09:47:44.586Z,0.89
2022-12-03T09:48:46.334Z,0.9
2022-12-03T09:49:48.074Z,0.91
2022-12-03T09:50:49.805Z,0.93
2022-12-03T09:51:51.591Z,0.94
2022-12-03T09:52:53.290Z,0.96
2022-12-03T09:53:54.998Z,0.96
2022-12-03T09:54:56.954Z,0.98
2022-12-03T09:55:58.463Z,1
2022-12-03T09:57:00.204Z,1.02
2022-12-03T09:58:01.957Z,1.03
2022-12-03T09:59:03.677Z,1.06
2022-12-03T10:00:05.406Z,1.08
2022-12-03T10:01:07.301Z,1.09
2022-12-03T10:02:08.965Z,1.1
2022-12-03T10:03:10.622Z,1.1
2022-12-03T10:04:12.433Z,1.12
2022-12-03T10:05:14.189Z,1.13
2022-12-03T10:06:15.799Z,1.15
2022-12-03T10:07:17.530Z,1.16
2022-12-03T10:08:19.316Z,1.16
2022-12-03T10:09:21.010Z,1.18
2022-12-03T10:10:22.715Z,1.18
2022-12-03T10:11:24.463Z,1.19
2022-12-03T10:12:26.232Z,1.19
2022-12-03T10:13:27.963Z,1.18
2022-12-03T10:14:29.679Z,1.18
2022-12-03T10:15:31.414Z,1.19
2022-12-03T10:16:33.218Z,1.2
2022-12-03T10:17:34.891Z,1.19
2022-12-03T10:18:41.412Z,1.2
2022-12-03T10:19:38.340Z,1.21
2022-12-03T10:20:40.098Z,1.22
2022-12-03T10:21:41.805Z,1.23
2022-12-03T10:22:43.537Z,1.24
2022-12-03T10:23:47.254Z,1.24
2022-12-03T10:24:47.004Z,1.24
2022-12-03T10:25:48.724Z,1.25
2022-12-03T10:26:50.515Z,1.23
2022-12-03T10:27:52.199Z,1.23
2022-12-03T10:28:53.927Z,1.23
2022-12-03T10:29:55.787Z,1.22
2022-12-03T10:30:57.432Z,1.23
2022-12-03T10:31:59.155Z,1.23
2022-12-03T10:33:00.850Z,1.23
2022-12-03T10:34:02.624Z,1.25
2022-12-03T10:35:04.375Z,1.26
2022-12-03T10:36:06.058Z,1.27
2022-12-03T10:37:07.800Z,1.27
2022-12-03T10:38:09.537Z,1.28
2022-12-03T10:39:11.287Z,1.29
2022-12-03T10:40:12.989Z,1.3
2022-12-03T10:41:14.720Z,1.32
2022-12-03T10:42:16.485Z,1.31
2022-12-03T10:43:18.201Z,1.32
2022-12-03T10:44:19.921Z,1.31
2022-12-03T10:45:21.675Z,1.3
2022-12-03T10:46:23.525Z,1.31
2022-12-03T10:47:25.340Z,1.31
2022-12-03T10:48:26.878Z,1.31
2022-12-03T10:49:28.628Z,1.31
2022-12-03T10:50:30.313Z,1.31
2022-12-03T10:51:32.247Z,1.32
2022-12-03T10:52:33.803Z,1.31
2022-12-03T10:53:35.537Z,1.31
2022-12-03T10:54:37.246Z,1.32
2022-12-03T10:55:38.985Z,1.31
2022-12-03T10:56:40.734Z,1.3
2022-12-03T10:57:45.641Z,1.3
2022-12-03T10:58:44.205Z,1.31
2022-12-03T10:59:45.947Z,1.31
2022-12-03T11:00:47.673Z,1.31
2022-12-03T11:01:49.457Z,1.31
2022-12-03T11:02:56.752Z,1.31
2022-12-03T11:03:52.908Z,1.31
2022-12-03T11:04:54.861Z,1.31
2022-12-03T11:05:56.337Z,1.31
2022-12-03T11:06:58.103Z,1.3
2022-12-03T11:07:59.879Z,1.31
2022-12-03T11:09:05.437Z,1.3
2022-12-03T11:10:03.262Z,1.29
2022-12-03T11:11:04.972Z,1.29
2022-12-03T11:12:06.728Z,1.28
2022-12-03T11:13:08.462Z,1.29
2022-12-03T11:14:10.168Z,1.29
2022-12-03T11:15:11.936Z,1.3
2022-12-03T11:16:13.789Z,1.31
2022-12-03T11:17:15.410Z,1.32
2022-12-03T11:18:17.122Z,1.31
2022-12-03T11:19:18.860Z,1.31
2022-12-03T11:20:22.793Z,1.32
2022-12-03T11:21:22.323Z,1.32
2022-12-03T11:22:24.066Z,1.32
2022-12-03T11:23:25.786Z,1.31
2022-12-03T11:24:27.523Z,1.32
2022-12-03T11:25:29.275Z,1.31
2022-12-03T11:26:30.971Z,1.3
2022-12-03T11:27:32.738Z,1.31
2022-12-03T11:28:34.478Z,1.31
2022-12-03T11:29:36.170Z,1.31
2022-12-03T11:30:37.928Z,1.32
2022-12-03T11:31:39.775Z,1.32
2022-12-03T11:32:41.411Z,1.33
2022-12-03T11:33:43.127Z,1.31
2022-12-03T11:34:44.839Z,1.33
2022-12-03T11:35:46.588Z,1.33
2022-12-03T11:37:01.578Z,1.33
2022-12-03T11:37:50.058Z,1.33
2022-12-03T11:38:53.741Z,1.33
2022-12-03T11:39:53.832Z,1.33
2022-12-03T11:40:55.263Z,1.35
2022-12-03T11:41:56.980Z,1.35
2022-12-03T11:42:58.709Z,1.36
2022-12-03T11:44:00.432Z,1.38
2022-12-03T11:45:02.162Z,1.39
2022-12-03T11:46:04.552Z,1.4
2022-12-03T11:47:05.703Z,1.42
2022-12-03T11:48:07.371Z,1.42
2022-12-03T11:49:09.098Z,1.42
2022-12-03T11:50:10.832Z,1.44
2022-12-03T11:51:12.573Z,1.44
2022-12-03T11:52:14.312Z,1.44
2022-12-03T11:53:16.048Z,1.45
2022-12-03T11:54:17.767Z,1.44
2022-12-03T11:55:19.515Z,1.45
2022-12-03T11:56:21.223Z,1.45
2022-12-03T11:57:22.982Z,1.45
2022-12-03T11:58:24.693Z,1.46
2022-12-03T11:59:26.434Z,1.46
2022-12-03T12:00:28.167Z,1.46
2022-12-03T12:01:32.978Z,1.44
2022-12-03T12:02:31.693Z,1.46
2022-12-03T12:03:33.876Z,1.46
2022-12-03T12:04:35.226Z,1.46
2022-12-03T12:05:36.846Z,1.45
2022-12-03T12:06:38.577Z,1.46
2022-12-03T12:07:40.364Z,1.46
2022-12-03T12:08:42.239Z,1.46
2022-12-03T12:09:43.753Z,1.46
2022-12-03T12:10:45.512Z,1.45
2022-12-03T12:11:47.370Z,1.46
2022-12-03T12:12:54.708Z,1.46
2022-12-03T12:13:50.707Z,1.47
2022-12-03T12:14:52.428Z,1.46
2022-12-03T12:15:54.183Z,1.47
2022-12-03T12:16:55.885Z,1.47
2022-12-03T12:17:57.641Z,1.48
2022-12-03T12:18:59.370Z,1.48
2022-12-03T12:20:01.146Z,1.49
2022-12-03T12:21:02.826Z,1.47
2022-12-03T12:22:04.560Z,1.47
2022-12-03T12:23:06.290Z,1.47
2022-12-03T12:24:08.024Z,1.46
2022-12-03T12:25:09.756Z,1.46
2022-12-03T12:26:11.475Z,1.47
2022-12-03T12:27:13.228Z,1.48
2022-12-03T12:28:14.951Z,1.48
2022-12-03T12:29:16.702Z,1.49
2022-12-03T12:30:18.416Z,1.49
2022-12-03T12:31:20.255Z,1.5
2022-12-03T12:32:21.886Z,1.49
2022-12-03T12:33:23.639Z,1.5
2022-12-03T12:34:25.362Z,1.47
2022-12-03T12:35:27.089Z,1.47
2022-12-03T12:36:28.840Z,1.47
2022-12-03T12:37:30.557Z,1.48
2022-12-03T12:38:32.286Z,1.5
2022-12-03T12:39:34.029Z,1.5
2022-12-03T12:40:35.748Z,1.5
2022-12-03T12:41:37.490Z,1.5
2022-12-03T12:42:39.237Z,1.52
2022-12-03T12:43:40.950Z,1.51
2022-12-03T12:44:42.678Z,1.5
2022-12-03T12:45:44.431Z,1.5
2022-12-03T12:46:48.197Z,1.5
2022-12-03T12:47:48.011Z,1.51
2022-12-03T12:48:49.620Z,1.52
2022-12-03T12:49:52.035Z,1.51
2022-12-03T12:50:53.088Z,1.52
2022-12-03T12:51:54.821Z,1.52
2022-12-03T12:52:56.553Z,1.52
2022-12-03T12:53:58.282Z,1.51
2022-12-03T12:55:04.694Z,1.51
2022-12-03T12:56:01.738Z,1.51
2022-12-03T12:57:03.519Z,1.51
2022-12-03T12:58:05.217Z,1.5
2022-12-03T12:59:06.943Z,1.49
2022-12-03T13:00:08.689Z,1.5
2022-12-03T13:01:10.619Z,1.49
2022-12-03T13:02:12.207Z,1.49
2022-12-03T13:03:13.874Z,1.5
2022-12-03T13:04:15.601Z,1.49
2022-12-03T13:05:17.334Z,1.48
2022-12-03T13:06:19.071Z,1.5
2022-12-03T13:07:20.820Z,1.5
2022-12-03T13:08:22.628Z,1.49
2022-12-03T13:09:24.275Z,1.5
2022-12-03T13:10:25.988Z,1.5
2022-12-03T13:11:27.734Z,1.49
2022-12-03T13:12:29.537Z,1.51
2022-12-03T13:13:31.181Z,1.51
2022-12-03T13:14:32.923Z,1.5
2022-12-03T13:15:34.657Z,1.52
2022-12-03T13:16:36.474Z,1.52
2022-12-03T13:17:58.937Z,1.53
2022-12-03T13:19:02.606Z,1.53
2022-12-03T13:20:07.972Z,1.54
2022-12-03T13:21:07.064Z,1.54
2022-12-03T13:22:08.793Z,1.54
2022-12-03T13:23:10.542Z,1.53
2022-12-03T13:24:12.260Z,1.53
2022-12-03T13:25:27.774Z,1.54
2022-12-03T13:26:30.460Z,1.53
2022-12-03T13:27:17.498Z,1.52
2022-12-03T13:28:19.182Z,1.52
2022-12-03T13:29:20.929Z,1.52
2022-12-03T13:30:22.650Z,1.5
2022-12-03T13:31:24.504Z,1.5
2022-12-03T13:32:26.134Z,1.51
2022-12-03T13:33:27.860Z,1.5
2022-12-03T13:34:29.601Z,1.49
2022-12-03T13:35:31.327Z,1.49